Time;durP1;ratioP1;P1;durP2;ratioP2;P2;SDS_P1;SDS_P2;PMS_P1;PMS_P2;Temp;Humidity;BMP_temperature;BMP_pressure;BME280_temperature;BME280_humidity;BME280_pressure;Samples;Min_cycle;Max_cycle;Signal;HPM_P1;HPM_P2
2022/11/23 00:01:35;;;;;;;2.33;0.80;;;22.50;40.10;;;;;;5044315;28;20609;-69
2022/11/23 00:04:05;;;;;;;6.63;1.00;;;22.60;40.50;;;;;;5033781;28;20203;-71
2022/11/23 00:06:33;;;;;;;2.17;0.70;;;22.80;40.80;;;;;;5033287;28;20199;-70
2022/11/23 00:09:00;;;;;;;3.33;0.63;;;23.30;39.50;;;;;;5033737;28;20239;-69
2022/11/23 00:11:28;;;;;;;4.13;1.10;;;23.10;39.30;;;;;;5033837;28;20752;-70
2022/11/23 00:13:56;;;;;;;4.30;0.70;;;23.50;39.40;;;;;;5039194;28;20238;-71
2022/11/23 00:16:26;;;;;;;3.60;0.80;;;24.00;38.40;;;;;;5036861;28;20642;-70
2022/11/23 00:18:59;;;;;;;1.60;0.80;;;23.70;38.40;;;;;;5049543;28;20180;-70
2022/11/23 00:21:28;;;;;;;5.03;1.00;;;23.70;38.70;;;;;;5051192;28;20717;-70
2022/11/23 00:23:55;;;;;;;3.07;0.67;;;23.50;38.40;;;;;;5050205;28;20687;-66
2022/11/23 00:26:23;;;;;;;2.80;0.70;;;23.30;38.40;;;;;;5037384;28;20184;-68
2022/11/23 00:28:50;;;;;;;2.20;0.80;;;23.30;38.80;;;;;;5047436;28;20175;-70
2022/11/23 00:31:20;;;;;;;9.10;0.90;;;23.70;38.60;;;;;;5057141;28;20499;-66
2022/11/23 00:33:52;;;;;;;3.60;0.70;;;23.50;38.40;;;;;;5044113;28;20195;-66
2022/11/23 00:36:21;;;;;;;2.60;0.90;;;23.30;38.80;;;;;;5046672;28;20768;-67
2022/11/23 00:38:50;;;;;;;1.50;0.73;;;23.20;38.90;;;;;;5047303;28;20169;-68
2022/11/23 00:41:21;;;;;;;2.23;0.60;;;23.20;39.70;;;;;;5035649;28;20187;-69
2022/11/23 00:43:48;;;;;;;4.53;1.27;;;23.80;39.10;;;;;;5037205;28;20534;-67
2022/11/23 00:46:24;;;;;;;1.87;0.83;;;23.80;38.40;;;;;;5052923;28;20218;-70
2022/11/23 00:48:53;;;;;;;4.13;0.90;;;23.70;38.90;;;;;;5034199;28;20188;-71
2022/11/23 00:51:30;;;;;;;3.73;0.80;;;23.80;38.30;;;;;;5032439;28;20567;-68
2022/11/23 00:53:58;;;;;;;1.73;0.57;;;23.60;38.40;;;;;;5039948;28;20191;-69
2022/11/23 00:56:27;;;;;;;1.97;0.90;;;23.80;38.00;;;;;;5039575;28;20262;-68
2022/11/23 00:58:57;;;;;;;3.23;0.60;;;23.70;38.20;;;;;;5039397;28;20244;-67
2022/11/23 01:01:26;;;;;;;2.03;0.90;;;24.10;38.20;;;;;;5045528;28;20230;-68
2022/11/23 01:03:57;;;;;;;4.20;0.70;;;24.00;37.80;;;;;;5048721;28;20547;-70
2022/11/23 01:06:33;;;;;;;1.97;0.60;;;24.30;37.70;;;;;;5047317;28;20183;-70
2022/11/23 01:09:04;;;;;;;1.50;0.70;;;24.30;37.50;;;;;;5040466;28;20172;-70
2022/11/23 01:11:32;;;;;;;4.20;0.60;;;24.30;37.70;;;;;;5048772;28;20184;-69
2022/11/23 01:14:00;;;;;;;3.07;0.80;;;24.60;37.00;;;;;;5040661;28;20786;-70
2022/11/23 01:16:33;;;;;;;4.40;0.83;;;24.80;37.00;;;;;;5047628;28;20781;-68
2022/11/23 01:19:04;;;;;;;2.43;0.70;;;24.70;36.50;;;;;;5073545;28;20250;-68
2022/11/23 01:21:33;;;;;;;0.93;0.60;;;24.50;36.60;;;;;;5043639;28;20187;-70
2022/11/23 01:24:05;;;;;;;1.80;0.70;;;24.30;36.70;;;;;;5048673;28;20265;-70
2022/11/23 01:26:32;;;;;;;0.83;0.50;;;24.70;36.90;;;;;;5042070;28;20184;-69
2022/11/23 01:29:00;;;;;;;1.77;0.80;;;24.70;36.40;;;;;;5044719;28;20646;-69
2022/11/23 01:31:27;;;;;;;1.00;0.50;;;24.80;36.80;;;;;;5049702;28;20211;-69
2022/11/23 01:33:57;;;;;;;2.60;0.80;;;25.20;36.00;;;;;;5041658;28;20184;-72
2022/11/23 01:36:27;;;;;;;1.10;0.60;;;25.40;35.90;;;;;;5044201;28;20642;-73
2022/11/23 01:38:55;;;;;;;1.53;0.80;;;25.50;35.00;;;;;;5051190;28;20658;-71
2022/11/23 01:41:27;;;;;;;2.03;0.77;;;25.00;35.50;;;;;;5046110;28;20192;-69
2022/11/23 01:43:55;;;;;;;4.47;0.77;;;25.30;35.60;;;;;;5049765;28;20218;-68
2022/11/23 01:46:23;;;;;;;1.17;0.70;;;25.20;35.40;;;;;;5042611;28;20227;-70
2022/11/23 01:49:16;;;;;;;0.90;0.50;;;25.70;34.90;;;;;;5042121;28;20547;-72
2022/11/23 01:51:47;;;;;;;2.30;0.63;;;25.50;35.30;;;;;;5045325;28;20212;-70
2022/11/23 01:54:17;;;;;;;0.90;0.47;;;25.50;35.00;;;;;;5047984;28;20187;-69
2022/11/23 01:56:51;;;;;;;1.60;0.60;;;25.70;34.90;;;;;;5050917;28;20194;-69
2022/11/23 01:59:20;;;;;;;2.83;0.60;;;25.80;34.50;;;;;;5054633;28;20175;-70
2022/11/23 02:01:48;;;;;;;2.60;0.60;;;25.90;34.00;;;;;;5054277;28;20526;-69
2022/11/23 02:04:22;;;;;;;0.87;0.50;;;25.80;34.40;;;;;;5048578;28;20194;-68
2022/11/23 02:06:51;;;;;;;1.33;0.50;;;25.40;34.70;;;;;;5050114;28;20218;-70
2022/11/23 02:09:21;;;;;;;0.93;0.57;;;25.80;34.10;;;;;;5045787;28;20638;-70
2022/11/23 02:11:48;;;;;;;1.47;0.47;;;26.50;33.10;;;;;;5045173;28;20192;-69
2022/11/23 02:14:16;;;;;;;0.80;0.50;;;26.40;33.70;;;;;;5050248;28;20180;-71
2022/11/23 02:16:43;;;;;;;1.13;0.50;;;26.40;34.00;;;;;;5045959;28;20279;-72
2022/11/23 02:19:41;;;;;;;2.20;0.70;;;26.60;33.30;;;;;;5058990;28;20254;-71
2022/11/23 02:22:32;;;;;;;3.13;0.60;;;26.80;33.40;;;;;;5034547;28;20243;-69
2022/11/23 02:25:04;;;;;;;1.20;0.43;;;26.80;32.50;;;;;;5043475;28;20196;-69
2022/11/23 02:27:31;;;;;;;1.13;0.60;;;26.60;33.50;;;;;;5041065;28;20189;-69
2022/11/23 02:30:00;;;;;;;5.33;0.70;;;26.80;33.10;;;;;;5046588;28;20215;-70
2022/11/23 02:32:29;;;;;;;2.70;0.63;;;27.10;31.90;;;;;;5052427;28;20260;-70
2022/11/23 02:34:56;;;;;;;1.93;0.60;;;27.10;32.60;;;;;;5035833;28;20238;-70
2022/11/23 02:37:24;;;;;;;3.80;0.80;;;27.30;32.00;;;;;;5035392;28;20188;-70
2022/11/23 02:39:53;;;;;;;1.00;0.40;;;27.20;32.50;;;;;;5049952;28;20196;-67
2022/11/23 02:42:21;;;;;;;1.80;0.57;;;27.20;31.30;;;;;;5052414;28;20287;-70
2022/11/23 02:45:06;;;;;;;4.10;1.13;;;26.80;32.40;;;;;;5043912;28;20498;-71
2022/11/23 02:47:33;;;;;;;1.03;0.60;;;27.00;32.20;;;;;;5052342;28;20226;-70
2022/11/23 02:50:01;;;;;;;0.90;0.40;;;27.50;31.50;;;;;;5035210;28;20679;-71
2022/11/23 02:52:28;;;;;;;0.40;0.40;;;27.80;31.80;;;;;;5036254;28;20651;-72
2022/11/23 02:54:55;;;;;;;2.00;0.50;;;28.30;30.80;;;;;;5033769;28;20224;-68
2022/11/23 02:57:23;;;;;;;2.47;0.60;;;28.00;31.10;;;;;;5040108;28;20191;-71
2022/11/23 02:59:50;;;;;;;1.43;0.70;;;28.40;30.40;;;;;;5050549;28;20183;-70
2022/11/23 03:02:18;;;;;;;1.47;0.60;;;27.80;30.70;;;;;;5059173;28;20222;-71
2022/11/23 03:04:45;;;;;;;1.23;0.60;;;27.80;31.00;;;;;;5038670;28;20254;-71
2022/11/23 03:07:12;;;;;;;1.83;0.50;;;27.90;30.90;;;;;;5046832;28;20180;-71
2022/11/23 03:09:40;;;;;;;0.50;0.40;;;27.70;31.20;;;;;;5044710;28;20199;-71
2022/11/23 03:12:07;;;;;;;0.60;0.50;;;28.00;31.00;;;;;;5051845;28;20184;-71
2022/11/23 03:14:37;;;;;;;2.03;0.67;;;28.00;30.40;;;;;;5050477;28;20222;-72
2022/11/23 03:17:04;;;;;;;1.03;0.53;;;28.70;30.30;;;;;;5049467;28;20176;-71
2022/11/23 03:19:32;;;;;;;0.70;0.40;;;28.50;29.90;;;;;;5047378;28;20195;-69
2022/11/23 03:21:59;;;;;;;3.13;0.50;;;28.30;29.70;;;;;;5045868;28;20180;-71
2022/11/23 03:24:27;;;;;;;1.47;0.50;;;28.40;30.30;;;;;;5049540;28;20191;-70
2022/11/23 03:26:54;;;;;;;1.53;0.43;;;28.90;29.70;;;;;;5050014;28;20215;-70
2022/11/23 03:29:25;;;;;;;1.03;0.40;;;29.00;28.70;;;;;;5049595;28;20184;-70
2022/11/23 03:31:53;;;;;;;1.30;0.57;;;28.90;28.60;;;;;;5050409;28;20187;-71
2022/11/23 03:34:21;;;;;;;1.37;0.53;;;29.40;28.70;;;;;;5050277;28;20203;-70
2022/11/23 03:36:48;;;;;;;2.40;0.57;;;29.70;27.80;;;;;;5047924;28;20253;-72
2022/11/23 03:39:16;;;;;;;1.20;0.50;;;29.00;29.00;;;;;;5047248;28;20225;-72
2022/11/23 03:41:44;;;;;;;0.60;0.40;;;29.60;28.50;;;;;;5045591;28;20185;-70
2022/11/23 03:44:11;;;;;;;0.90;0.40;;;29.70;28.30;;;;;;5049053;28;20183;-72
2022/11/23 03:46:39;;;;;;;1.60;0.70;;;29.80;28.40;;;;;;4949661;28;2909556;-71
2022/11/23 03:49:07;;;;;;;2.53;0.65;;;30.20;27.80;;;;;;5047986;28;20187;-72
2022/11/23 03:51:34;;;;;;;1.45;0.85;;;30.10;27.70;;;;;;5046137;28;20654;-71
2022/11/23 03:54:02;;;;;;;0.73;0.40;;;30.50;28.20;;;;;;5051175;28;20183;-71
2022/11/23 03:56:29;;;;;;;0.75;0.50;;;30.00;27.60;;;;;;5047944;28;20192;-73
2022/11/23 03:58:56;;;;;;;0.93;0.50;;;30.30;27.60;;;;;;5049720;28;20314;-70
2022/11/23 04:01:24;;;;;;;1.35;0.50;;;30.30;27.40;;;;;;5048494;28;20290;-72
2022/11/23 04:03:52;;;;;;;1.35;0.30;;;30.00;27.90;;;;;;5047874;28;20168;-71
2022/11/23 04:06:19;;;;;;;4.20;0.80;;;30.00;27.60;;;;;;5047777;28;20180;-73
2022/11/23 04:08:47;;;;;;;0.97;0.47;;;30.10;27.40;;;;;;5050194;28;20176;-71
2022/11/23 04:11:14;;;;;;;1.48;0.50;;;30.00;27.80;;;;;;5043136;28;20184;-72
2022/11/23 04:13:42;;;;;;;1.43;0.53;;;30.30;27.50;;;;;;5045150;28;20663;-70
2022/11/23 04:16:09;;;;;;;0.43;0.40;;;30.70;27.50;;;;;;5050709;28;20211;-70
2022/11/23 04:18:37;;;;;;;2.78;0.40;;;30.10;27.40;;;;;;5048901;28;20194;-70
2022/11/23 04:21:04;;;;;;;1.48;0.40;;;30.30;28.30;;;;;;5070043;28;20234;-71
2022/11/23 04:23:32;;;;;;;1.02;0.35;;;31.20;26.40;;;;;;5034762;28;20626;-70
2022/11/23 04:25:59;;;;;;;4.78;0.70;;;31.50;25.80;;;;;;5049227;28;20263;-70
2022/11/23 04:28:27;;;;;;;2.70;0.57;;;31.30;26.00;;;;;;5041704;28;20274;-69
2022/11/23 04:30:54;;;;;;;1.43;0.47;;;30.60;26.50;;;;;;5059122;28;20180;-70
2022/11/23 04:33:22;;;;;;;0.80;0.50;;;30.80;26.40;;;;;;5049369;28;20187;-70
2022/11/23 04:35:49;;;;;;;4.20;0.50;;;30.60;26.70;;;;;;5036300;28;20268;-71
2022/11/23 04:38:17;;;;;;;1.27;0.50;;;31.30;25.80;;;;;;5048471;28;20179;-70
2022/11/23 04:40:48;;;;;;;1.88;0.40;;;31.70;25.10;;;;;;5038823;28;20208;-70
2022/11/23 04:43:15;;;;;;;0.30;0.30;;;31.80;24.90;;;;;;5043386;28;20295;-70
2022/11/23 04:45:44;;;;;;;1.08;0.40;;;31.70;24.90;;;;;;5043191;28;20195;-70
2022/11/23 04:48:11;;;;;;;2.10;0.40;;;31.30;25.50;;;;;;5045140;28;20266;-71
2022/11/23 04:50:40;;;;;;;2.22;0.52;;;31.60;25.10;;;;;;5034715;28;20185;-71
2022/11/23 04:53:08;;;;;;;4.10;0.95;;;31.80;25.20;;;;;;5035085;28;20183;-71
2022/11/23 04:55:36;;;;;;;1.75;0.40;;;32.30;24.60;;;;;;5044783;28;20298;-71
2022/11/23 04:58:04;;;;;;;1.63;0.40;;;33.90;23.40;;;;;;5048283;28;20245;-71
2022/11/23 05:00:35;;;;;;;0.50;0.40;;;33.70;23.10;;;;;;5037099;28;20225;-73
2022/11/23 05:03:02;;;;;;;2.53;0.50;;;32.90;23.80;;;;;;5036285;28;20251;-71
2022/11/23 05:05:30;;;;;;;1.13;0.45;;;31.90;24.70;;;;;;5032821;28;20284;-71
2022/11/23 05:07:58;;;;;;;1.13;0.50;;;32.40;25.00;;;;;;5032641;28;20256;-71
2022/11/23 05:10:26;;;;;;;1.90;0.68;;;32.90;24.30;;;;;;5040342;28;20191;-70
2022/11/23 05:12:53;;;;;;;1.08;0.47;;;32.80;23.90;;;;;;5034385;28;20272;-70
2022/11/23 05:15:20;;;;;;;2.75;0.52;;;32.60;24.30;;;;;;5041117;28;20224;-71
2022/11/23 05:17:48;;;;;;;1.17;0.45;;;33.00;24.20;;;;;;5033059;28;20256;-72
2022/11/23 05:20:16;;;;;;;0.30;0.30;;;34.00;22.70;;;;;;5037109;28;20238;-71
2022/11/23 05:22:43;;;;;;;0.45;0.30;;;34.10;22.50;;;;;;5032819;28;20230;-71
2022/11/23 05:25:11;;;;;;;1.58;0.40;;;33.30;23.60;;;;;;5035475;28;20187;-70
2022/11/23 05:27:38;;;;;;;0.63;0.30;;;34.30;22.80;;;;;;5038168;28;20191;-72
2022/11/23 05:30:06;;;;;;;1.58;0.40;;;35.40;21.40;;;;;;5037859;28;20185;-69
2022/11/23 05:32:34;;;;;;;3.05;0.77;;;33.60;22.90;;;;;;5039323;28;20184;-71
2022/11/23 05:35:05;;;;;;;1.20;0.50;;;32.90;24.00;;;;;;5035044;28;20200;-70
2022/11/23 05:37:33;;;;;;;1.15;0.60;;;33.20;23.40;;;;;;5031498;28;20184;-69
2022/11/23 05:40:01;;;;;;;0.80;0.40;;;33.90;23.10;;;;;;5035011;28;20545;-69
2022/11/23 05:42:28;;;;;;;1.88;0.40;;;34.60;22.30;;;;;;5034036;28;20752;-70
2022/11/23 05:44:56;;;;;;;0.68;0.40;;;35.00;22.00;;;;;;5043258;28;20181;-71
2022/11/23 05:47:23;;;;;;;2.00;0.40;;;34.10;22.50;;;;;;5036326;28;20251;-69
2022/11/23 05:49:51;;;;;;;1.58;0.50;;;33.90;22.50;;;;;;5032473;28;20192;-70
2022/11/23 05:52:18;;;;;;;2.92;0.52;;;33.70;22.80;;;;;;5032374;28;20185;-70
2022/11/23 05:54:45;;;;;;;2.47;0.82;;;33.00;24.00;;;;;;5032000;28;20220;-68
2022/11/23 05:57:14;;;;;;;8.27;1.35;;;32.30;26.90;;;;;;5032324;28;20261;-70
2022/11/23 05:59:42;;;;;;;2.60;1.00;;;32.90;26.80;;;;;;5036833;28;20549;-70
2022/11/23 06:02:09;;;;;;;4.63;0.90;;;32.50;27.40;;;;;;5036393;28;20581;-68
2022/11/23 06:04:37;;;;;;;3.90;0.90;;;31.00;29.90;;;;;;5035256;28;20643;-69
2022/11/23 06:07:04;;;;;;;1.88;0.93;;;30.80;30.30;;;;;;5040262;28;20575;-69
2022/11/23 06:09:31;;;;;;;2.10;1.00;;;30.30;31.30;;;;;;5036550;28;20187;-69
2022/11/23 06:11:59;;;;;;;2.38;0.82;;;30.60;30.40;;;;;;5032504;28;20234;-69
2022/11/23 06:14:26;;;;;;;2.78;0.90;;;30.70;30.30;;;;;;5032087;28;20264;-68
2022/11/23 06:16:53;;;;;;;4.88;1.10;;;31.50;29.60;;;;;;5032185;28;20185;-68
2022/11/23 06:19:21;;;;;;;2.55;0.98;;;31.10;30.50;;;;;;5036797;28;20180;-69
2022/11/23 06:21:48;;;;;;;5.65;1.10;;;31.00;30.40;;;;;;5039609;28;20183;-70
2022/11/23 06:24:16;;;;;;;1.70;0.90;;;30.80;30.90;;;;;;5033573;28;20216;-70
2022/11/23 06:26:43;;;;;;;2.25;0.77;;;30.80;31.00;;;;;;5044038;28;20180;-70
2022/11/23 06:29:11;;;;;;;5.97;0.90;;;31.30;30.40;;;;;;5040075;28;20259;-70
2022/11/23 06:31:38;;;;;;;3.85;1.25;;;31.30;30.80;;;;;;5040466;28;20257;-69
2022/11/23 06:34:05;;;;;;;2.63;1.00;;;30.80;31.60;;;;;;5050423;28;20199;-70
2022/11/23 06:36:33;;;;;;;4.10;1.00;;;30.60;32.00;;;;;;5043042;28;20242;-70
2022/11/23 06:39:00;;;;;;;3.85;1.05;;;29.90;33.20;;;;;;5034197;28;20182;-70
2022/11/23 06:41:27;;;;;;;2.63;0.90;;;30.40;32.30;;;;;;5044946;28;20254;-69
2022/11/23 06:43:55;;;;;;;1.60;0.73;;;30.40;32.20;;;;;;5050092;28;20266;-71
2022/11/23 06:46:22;;;;;;;3.97;0.93;;;30.60;32.10;;;;;;5047733;28;20220;-70
2022/11/23 06:48:50;;;;;;;1.30;0.73;;;31.00;31.50;;;;;;5041911;28;20172;-70
2022/11/23 06:51:17;;;;;;;5.47;0.80;;;29.50;33.50;;;;;;5037719;28;20179;-68
2022/11/23 06:53:44;;;;;;;2.95;0.90;;;29.60;33.90;;;;;;5041791;28;20201;-69
2022/11/23 06:56:12;;;;;;;1.58;0.90;;;29.70;33.70;;;;;;5042861;28;20623;-69
2022/11/23 06:58:39;;;;;;;3.35;1.05;;;30.70;32.10;;;;;;5044200;28;20180;-70
2022/11/23 07:01:08;;;;;;;2.60;0.90;;;30.60;32.80;;;;;;5037756;28;20237;-68
2022/11/23 07:03:36;;;;;;;4.15;1.10;;;31.00;32.70;;;;;;5044186;28;20582;-69
2022/11/23 07:06:08;;;;;;;2.63;1.00;;;29.50;36.50;;;;;;5045817;28;20207;-68
2022/11/23 07:08:42;;;;;;;6.30;1.33;;;28.60;38.30;;;;;;5035500;28;20177;-69
2022/11/23 07:11:11;;;;;;;2.08;1.02;;;28.40;39.00;;;;;;5048664;28;20186;-70
2022/11/23 07:13:39;;;;;;;2.65;1.08;;;27.60;40.50;;;;;;5038478;28;20180;-69
2022/11/23 07:16:06;;;;;;;2.17;1.10;;;27.10;40.80;;;;;;5034645;28;20244;-69
2022/11/23 07:18:34;;;;;;;5.80;1.20;;;26.70;41.60;;;;;;5036990;28;20173;-68
2022/11/23 07:21:01;;;;;;;5.40;1.30;;;26.60;41.00;;;;;;5035078;28;20718;-70
2022/11/23 07:23:29;;;;;;;13.70;1.03;;;26.70;40.70;;;;;;5034288;28;20592;-68
2022/11/23 07:25:56;;;;;;;8.13;1.40;;;26.10;42.10;;;;;;5034857;28;20536;-69
2022/11/23 07:28:23;;;;;;;6.43;0.93;;;26.10;42.30;;;;;;5037655;28;20264;-69
2022/11/23 07:30:51;;;;;;;2.63;0.90;;;26.10;42.70;;;;;;5045027;28;20188;-69
2022/11/23 07:33:18;;;;;;;5.80;1.17;;;25.50;42.80;;;;;;5035315;28;20208;-70
2022/11/23 07:35:47;;;;;;;6.47;1.40;;;25.70;41.90;;;;;;5046840;28;20304;-70
2022/11/23 07:38:14;;;;;;;4.30;1.23;;;25.60;42.60;;;;;;5034112;28;20185;-69
2022/11/23 07:40:42;;;;;;;7.60;1.20;;;25.30;42.90;;;;;;5034460;28;20169;-69
2022/11/23 07:43:10;;;;;;;5.43;1.33;;;25.10;43.40;;;;;;5043190;28;20180;-69
2022/11/23 07:45:38;;;;;;;2.97;0.93;;;24.90;43.50;;;;;;5038762;28;20192;-69
2022/11/23 07:48:07;;;;;;;5.10;1.10;;;24.90;43.60;;;;;;5034607;28;20267;-69
2022/11/23 07:50:36;;;;;;;2.73;0.87;;;24.80;43.40;;;;;;5033325;28;20184;-68
2022/11/23 07:53:05;;;;;;;7.50;1.43;;;24.60;43.80;;;;;;5034094;28;20204;-69
2022/11/23 07:55:33;;;;;;;5.10;1.23;;;24.30;44.70;;;;;;5033903;28;20238;-68
2022/11/23 07:58:00;;;;;;;3.80;1.30;;;24.20;44.90;;;;;;5034351;28;20189;-69
2022/11/23 08:00:29;;;;;;;3.53;1.13;;;24.20;45.20;;;;;;5034094;28;20295;-69
2022/11/23 08:02:58;;;;;;;5.77;1.60;;;24.10;45.80;;;;;;5033916;28;20208;-69
2022/11/23 08:05:25;;;;;;;4.03;1.50;;;24.10;45.60;;;;;;5042952;28;20191;-69
2022/11/23 08:08:01;;;;;;;6.90;1.37;;;24.00;46.20;;;;;;5033186;28;20228;-69
2022/11/23 08:10:30;;;;;;;5.60;1.87;;;24.00;46.00;;;;;;5039838;28;20541;-69
2022/11/23 08:13:03;;;;;;;5.73;1.53;;;24.00;47.10;;;;;;5041040;28;20180;-69
2022/11/23 08:15:31;;;;;;;4.73;1.67;;;23.80;47.60;;;;;;5044616;28;20236;-69
2022/11/23 08:18:03;;;;;;;4.17;1.40;;;23.80;47.50;;;;;;5036276;28;20180;-69
2022/11/23 08:20:32;;;;;;;6.80;1.97;;;23.80;47.80;;;;;;5038428;28;20298;-69
2022/11/23 08:22:59;;;;;;;7.90;1.80;;;23.80;48.00;;;;;;5044701;28;20513;-69
2022/11/23 08:25:28;;;;;;;5.87;2.10;;;23.70;48.10;;;;;;5035390;28;20173;-69
2022/11/23 08:27:58;;;;;;;9.63;2.70;;;23.60;48.20;;;;;;5034195;28;20187;-69
2022/11/23 08:30:27;;;;;;;5.30;2.03;;;23.40;48.60;;;;;;5035623;28;20208;-69
2022/11/23 08:32:55;;;;;;;6.47;2.63;;;23.10;48.60;;;;;;5033584;28;20192;-70
2022/11/23 08:35:23;;;;;;;8.50;2.63;;;23.00;49.30;;;;;;5033297;28;20231;-69
2022/11/23 08:37:50;;;;;;;9.70;2.60;;;22.90;49.70;;;;;;5032588;28;20267;-69
2022/11/23 08:40:18;;;;;;;5.00;2.37;;;22.90;49.80;;;;;;5039823;28;20601;-68
2022/11/23 08:42:47;;;;;;;9.40;2.00;;;22.90;49.80;;;;;;5045076;28;20200;-69
2022/11/23 08:45:15;;;;;;;7.23;1.47;;;22.80;49.60;;;;;;5039214;28;20184;-69
2022/11/23 08:47:42;;;;;;;3.87;1.87;;;22.80;50.00;;;;;;5035598;28;20298;-69
2022/11/23 08:50:10;;;;;;;4.20;1.50;;;22.80;49.90;;;;;;5035758;28;20194;-69
2022/11/23 08:52:37;;;;;;;4.40;1.80;;;22.80;49.80;;;;;;5046142;28;20615;-68
2022/11/23 08:55:05;;;;;;;3.37;1.40;;;22.60;50.10;;;;;;5039440;28;20192;-68
2022/11/23 08:57:32;;;;;;;6.60;1.83;;;22.60;50.00;;;;;;5037652;28;20184;-68
2022/11/23 09:00:00;;;;;;;10.53;2.03;;;22.60;50.30;;;;;;5044424;28;20696;-68
2022/11/23 09:02:27;;;;;;;6.23;1.83;;;22.40;50.20;;;;;;5046926;28;20187;-68
2022/11/23 09:04:54;;;;;;;7.13;1.70;;;22.40;50.20;;;;;;5038913;28;20180;-69
2022/11/23 09:07:22;;;;;;;5.03;1.80;;;22.40;50.40;;;;;;5034020;28;20190;-69
2022/11/23 09:09:49;;;;;;;9.57;2.00;;;22.30;50.20;;;;;;5035622;28;20184;-70
2022/11/23 09:12:17;;;;;;;8.43;1.70;;;22.30;50.40;;;;;;5032777;28;20461;-69
2022/11/23 09:14:44;;;;;;;8.87;2.10;;;22.20;49.80;;;;;;5065400;28;20234;-69
2022/11/23 09:17:12;;;;;;;9.30;2.30;;;22.20;49.90;;;;;;5043065;28;20182;-70
2022/11/23 09:19:39;;;;;;;4.50;1.47;;;22.20;49.70;;;;;;5032964;28;20546;-69
2022/11/23 09:22:06;;;;;;;8.60;1.87;;;22.10;48.90;;;;;;5039495;28;20209;-68
2022/11/23 09:24:34;;;;;;;7.07;1.30;;;22.00;49.00;;;;;;5045534;28;20180;-69
2022/11/23 09:27:01;;;;;;;6.53;1.40;;;21.90;48.80;;;;;;5045830;28;20184;-69
2022/11/23 09:29:28;;;;;;;9.80;1.70;;;21.90;48.90;;;;;;5037878;28;20243;-70
2022/11/23 09:31:56;;;;;;;6.90;1.93;;;22.00;48.80;;;;;;5033080;28;20554;-70
2022/11/23 09:34:23;;;;;;;9.20;2.27;;;21.80;49.10;;;;;;5032739;28;20185;-70
2022/11/23 09:36:51;;;;;;;7.23;1.77;;;21.80;49.40;;;;;;5043507;28;20549;-68
2022/11/23 09:39:18;;;;;;;6.37;2.10;;;21.80;49.80;;;;;;5039248;28;20262;-70
2022/11/23 09:42:02;;;;;;;7.43;1.83;;;21.80;50.30;;;;;;5032883;28;20188;-70
2022/11/23 09:44:52;;;;;;;6.60;1.60;;;21.80;50.60;;;;;;5048358;28;20216;-68
2022/11/23 09:47:50;;;;;;;8.10;1.80;;;21.70;50.00;;;;;;5037081;28;20234;-69
2022/11/23 09:50:34;;;;;;;4.27;1.60;;;21.70;50.00;;;;;;5035396;28;20195;-71
2022/11/23 09:53:09;;;;;;;5.13;1.73;;;21.70;50.30;;;;;;5044721;28;20187;-69
2022/11/23 09:55:48;;;;;;;3.60;1.50;;;21.80;49.90;;;;;;5035059;28;20292;-70
2022/11/23 09:58:19;;;;;;;4.90;1.60;;;21.70;50.10;;;;;;5036540;28;20203;-69
2022/11/23 10:01:05;;;;;;;5.00;1.80;;;21.60;50.10;;;;;;5049189;28;20658;-69
2022/11/23 10:03:39;;;;;;;3.70;1.80;;;21.70;49.90;;;;;;5036799;28;20175;-68
2022/11/23 10:06:25;;;;;;;12.67;2.43;;;21.60;49.80;;;;;;5037005;28;20185;-69
2022/11/23 10:09:01;;;;;;;13.10;2.13;;;21.50;50.10;;;;;;5039214;28;20183;-70
2022/11/23 10:11:55;;;;;;;3.93;1.00;;;21.60;50.00;;;;;;5037190;28;20545;-69
2022/11/23 10:14:49;;;;;;;4.83;2.30;;;21.60;50.00;;;;;;5035444;28;20314;-69
2022/11/23 10:17:37;;;;;;;3.17;1.80;;;21.70;49.20;;;;;;5045634;28;20618;-69
2022/11/23 10:20:26;;;;;;;4.00;2.23;;;21.70;49.50;;;;;;5045109;28;20539;-69
2022/11/23 10:23:01;;;;;;;5.37;1.57;;;21.80;49.70;;;;;;5043609;28;20223;-68
2022/11/23 10:25:50;;;;;;;11.23;7.40;;;21.90;49.90;;;;;;5035444;28;20782;-70
2022/11/23 10:28:20;;;;;;;6.97;4.17;;;21.80;49.60;;;;;;5038949;28;20181;-69
2022/11/23 10:31:17;;;;;;;10.70;6.60;;;21.80;49.80;;;;;;5045763;28;20192;-70
2022/11/23 10:34:08;;;;;;;6.77;3.10;;;21.70;49.90;;;;;;5051874;28;20176;-69
2022/11/23 10:36:36;;;;;;;7.03;3.73;;;21.70;49.60;;;;;;5049683;28;20217;-68
2022/11/23 10:39:20;;;;;;;4.50;2.30;;;21.70;49.40;;;;;;5035540;28;20173;-67
2022/11/23 10:41:48;;;;;;;4.00;1.63;;;21.70;49.80;;;;;;5035420;28;20218;-67
2022/11/23 10:44:28;;;;;;;3.63;1.50;;;21.70;49.90;;;;;;5051038;28;20184;-67
2022/11/23 10:46:56;;;;;;;6.23;1.97;;;21.60;50.00;;;;;;5038821;28;20240;-67
2022/11/23 10:49:28;;;;;;;5.20;2.07;;;21.60;50.80;;;;;;5047041;28;20188;-68
2022/11/23 10:52:31;;;;;;;3.60;1.30;;;21.50;51.50;;;;;;5046616;28;20214;-68
2022/11/23 10:55:02;;;;;;;3.30;1.23;;;21.40;51.50;;;;;;5065713;28;20208;-68
2022/11/23 10:57:35;;;;;;;4.20;1.40;;;21.40;51.60;;;;;;5047647;28;20180;-67
2022/11/23 11:00:13;;;;;;;5.93;1.33;;;21.30;51.40;;;;;;5041389;28;20219;-69
2022/11/23 11:02:46;;;;;;;6.70;1.60;;;21.40;51.60;;;;;;5051311;28;20182;-68
2022/11/23 11:05:27;;;;;;;4.87;1.90;;;21.40;51.90;;;;;;5052801;28;20250;-75
2022/11/23 11:07:57;;;;;;;3.13;1.57;;;21.50;52.00;;;;;;5039944;28;20230;-69
2022/11/23 11:10:36;;;;;;;3.10;1.47;;;21.30;51.00;;;;;;5037691;28;20195;-70
2022/11/23 11:13:20;;;;;;;2.30;1.33;;;21.30;51.10;;;;;;5050936;28;20176;-70
2022/11/23 11:15:57;;;;;;;4.57;1.30;;;21.30;51.80;;;;;;5035088;28;20650;-69
2022/11/23 11:18:36;;;;;;;7.80;1.47;;;21.30;51.70;;;;;;5048975;28;20172;-70
2022/11/23 11:21:26;;;;;;;7.37;1.63;;;21.30;51.60;;;;;;5046791;28;20168;-68
2022/11/23 11:23:59;;;;;;;3.07;1.57;;;21.30;51.30;;;;;;5047350;28;20179;-70
2022/11/23 11:26:28;;;;;;;6.73;1.53;;;21.20;51.70;;;;;;5051889;28;20626;-69
2022/11/23 11:29:01;;;;;;;5.33;1.63;;;21.20;52.20;;;;;;5044059;28;20181;-70
2022/11/23 11:31:37;;;;;;;4.47;1.53;;;21.30;52.60;;;;;;5040532;28;20279;-68
2022/11/23 11:34:46;;;;;;;3.00;1.40;;;21.30;53.00;;;;;;5050376;28;20271;-68
2022/11/23 11:37:32;;;;;;;6.47;1.67;;;21.20;53.40;;;;;;5036424;28;20212;-69
2022/11/23 11:40:30;;;;;;;4.03;1.47;;;21.20;53.30;;;;;;5052235;28;20179;-68
2022/11/23 11:43:02;;;;;;;8.00;1.50;;;21.20;53.30;;;;;;5046007;28;20255;-69
2022/11/23 11:45:36;;;;;;;3.93;1.60;;;21.30;52.70;;;;;;5039970;28;20192;-69
2022/11/23 11:48:18;;;;;;;5.53;1.60;;;21.30;52.60;;;;;;5044811;28;20196;-69
2022/11/23 11:51:06;;;;;;;7.80;2.03;;;21.30;53.10;;;;;;5049346;28;20669;-70
2022/11/23 11:53:46;;;;;;;15.00;2.47;;;21.20;54.30;;;;;;5034108;28;20635;-69
2022/11/23 11:56:38;;;;;;;12.93;2.50;;;21.10;57.80;;;;;;5033826;28;20247;-71
2022/11/23 11:59:33;;;;;;;9.33;2.37;;;20.90;59.50;;;;;;5044639;28;20317;-69
2022/11/23 12:02:04;;;;;;;17.53;2.87;;;20.80;61.90;;;;;;5041396;28;20180;-69
2022/11/23 12:04:56;;;;;;;14.77;2.90;;;20.80;64.40;;;;;;5049951;28;20183;-69
2022/11/23 12:07:28;;;;;;;12.23;2.50;;;20.60;65.60;;;;;;5038489;28;20264;-71
2022/11/23 12:10:05;;;;;;;10.27;2.33;;;20.40;66.60;;;;;;5041552;28;20177;-72
2022/11/23 12:12:35;;;;;;;8.37;1.80;;;20.30;67.80;;;;;;5034083;28;20183;-70
2022/11/23 12:15:04;;;;;;;10.90;2.40;;;20.30;68.50;;;;;;5045956;28;20207;-71
2022/11/23 12:17:36;;;;;;;9.30;2.33;;;20.20;70.10;;;;;;5033647;28;20267;-70
2022/11/23 12:20:36;;;;;;;20.27;3.53;;;20.20;71.00;;;;;;5044417;28;20188;-72
2022/11/23 12:23:12;;;;;;;10.67;3.00;;;20.00;72.30;;;;;;5037628;28;20192;-70
2022/11/23 12:25:50;;;;;;;14.53;2.70;;;20.00;73.30;;;;;;5033610;28;20184;-72
2022/11/23 12:28:24;;;;;;;19.10;3.50;;;19.90;74.00;;;;;;5047524;28;20275;-70
2022/11/23 12:31:13;;;;;;;14.60;3.13;;;19.80;74.90;;;;;;5039875;28;20191;-70
2022/11/23 12:34:06;;;;;;;16.97;3.33;;;19.80;75.50;;;;;;5033666;28;20642;-69
2022/11/23 12:37:28;;;;;;;17.13;2.87;;;19.80;75.50;;;;;;5032613;28;20223;-68
2022/11/23 12:40:14;;;;;;;19.70;3.43;;;19.80;75.70;;;;;;5047609;28;20197;-69
2022/11/23 12:42:51;;;;;;;12.67;3.10;;;19.80;75.90;;;;;;5041027;28;20191;-70
2022/11/23 12:45:30;;;;;;;13.03;3.27;;;19.80;76.00;;;;;;5040743;28;20216;-69
2022/11/23 12:48:17;;;;;;;21.23;3.27;;;19.80;76.10;;;;;;5033240;28;20184;-69
2022/11/23 12:51:02;;;;;;;17.67;3.50;;;19.70;76.10;;;;;;5037880;28;20212;-68
2022/11/23 12:54:06;;;;;;;15.87;3.57;;;19.70;76.20;;;;;;5047624;28;20183;-69
2022/11/23 12:57:14;;;;;;;19.47;3.67;;;19.70;76.20;;;;;;5037183;28;20220;-67
2022/11/23 12:59:51;;;;;;;20.37;3.80;;;19.60;76.30;;;;;;5049662;28;20172;-68
2022/11/23 13:02:49;;;;;;;24.60;3.77;;;19.70;76.50;;;;;;5040271;28;20271;-67
2022/11/23 13:05:42;;;;;;;19.27;3.63;;;19.60;76.50;;;;;;5042421;28;20184;-68
2022/11/23 13:08:25;;;;;;;25.63;4.03;;;19.60;76.60;;;;;;5036586;28;20180;-69
2022/11/23 13:11:33;;;;;;;22.70;3.57;;;19.60;76.80;;;;;;5032446;28;20188;-68